KCWA/CWA METAR and TAF weather

Enter ICAO airport designator
Station Type Date Time Source
KCWA METAR 2018/07/21 03:55 UTC NOAA

KCWA 210355Z AUTO 36008G14KT 10SM RA SCT014 BKN100 OVC120 18/18 A2983 RMK AO2 P0001


Station Type Date Time Source
KCWA Decoded METAR 2018/07/21 03:55 UTC NOAA

Mosinee / Central Wisconsin, WI, United States (KCWA) 44-47N 089-40W
Jul 20, 2018 - 11:55 PM EDT / 2018.07.21 0355 UTC
Wind: from the N (360 degrees) at 9 MPH (8 KT) gusting to 16 MPH (14 KT):0
Visibility: 10 mile(s):0
Sky conditions: overcast
Weather: rain
Precipitation last hour: 0.01 inches
Temperature: 64 F (18 C)
Dew Point: 64 F (18 C)
Relative Humidity: 100%
Pressure (altimeter): 29.83 in. Hg (1010 hPa)
ob: KCWA 210355Z AUTO 36008G14KT 10SM RA SCT014 BKN100 OVC120 18/18 A2983 RMK AO2 P0001
cycle: 4

Station Type Date Time Source
KCWA TAF 2018/07/21 03:21 UTC NOAA

TAF
AMD KCWA 210318Z 2103/2124 35008KT P6SM VCSH SCT015 OVC040
TEMPO 2103/2105 3SM SHRA BKN015
FM210500 35008KT P6SM BKN012 OVC040
FM210700 36008G15KT 5SM BR OVC006
FM211400 36012G18KT P6SM BKN015
FM211800 01012G20KT P6SM VCSH OVC035
AMD LTD TO CLD VIS AND WIND TIL 211100


Example: see airport list